Time;durP1;ratioP1;P1;durP2;ratioP2;P2;SDS_P1;SDS_P2;PMS_P1;PMS_P2;Temp;Humidity;BMP_temperature;BMP_pressure;BME280_temperature;BME280_humidity;BME280_pressure;Samples;Min_cycle;Max_cycle;Signal;HPM_P1;HPM_P2
2021/12/12 00:02:30;;;;;;;12.13;5.97;;;;;;;-3.73;100.00;97154.78;10609289;28;20169;-63
2021/12/12 00:07:31;;;;;;;10.73;6.40;;;;;;;-3.85;100.00;97158.63;10609592;28;20170;-61
2021/12/12 00:12:36;;;;;;;10.80;5.77;;;;;;;-3.84;100.00;97156.91;10609772;28;20197;-63
2021/12/12 00:17:36;;;;;;;12.83;6.67;;;;;;;-3.79;100.00;97157.56;10608954;28;20311;-65
2021/12/12 00:22:37;;;;;;;11.53;5.63;;;;;;;-3.74;100.00;97160.78;10608731;28;20173;-62
2021/12/12 00:27:38;;;;;;;13.33;6.50;;;;;;;-3.77;100.00;97158.34;10608531;28;20376;-65
2021/12/12 00:32:39;;;;;;;9.27;6.00;;;;;;;-3.85;100.00;97161.19;10608806;28;20269;-63
2021/12/12 00:37:40;;;;;;;9.60;5.73;;;;;;;-3.74;100.00;97159.97;10608866;28;20180;-63
2021/12/12 00:42:41;;;;;;;10.13;5.83;;;;;;;-3.78;100.00;97161.81;10608484;28;20174;-63
2021/12/12 00:47:43;;;;;;;14.47;5.23;;;;;;;-3.55;100.00;97160.94;10609122;28;20198;-63
2021/12/12 00:52:45;;;;;;;14.73;5.53;;;;;;;-3.48;100.00;97167.47;10608381;28;20205;-61
2021/12/12 00:57:50;;;;;;;13.93;5.73;;;;;;;-3.49;100.00;97162.41;10608463;28;20171;-63
2021/12/12 01:02:52;;;;;;;7.80;4.57;;;;;;;-3.48;100.00;97161.53;10608526;28;20170;-61
2021/12/12 01:07:53;;;;;;;8.97;5.60;;;;;;;-3.39;100.00;97170.59;10608579;28;20229;-63
2021/12/12 01:12:55;;;;;;;10.87;5.67;;;;;;;-3.44;100.00;97165.66;10607812;28;20194;-61
2021/12/12 01:17:59;;;;;;;15.77;5.00;;;;;;;-3.38;100.00;97169.69;10608344;28;20218;-64
2021/12/12 01:23:08;;;;;;;8.97;4.30;;;;;;;-3.32;100.00;97174.56;10607902;28;20170;-63
2021/12/12 01:28:08;;;;;;;7.53;5.33;;;;;;;-3.24;100.00;97175.94;10607319;28;20165;-63
2021/12/12 01:33:10;;;;;;;11.53;5.30;;;;;;;-3.30;100.00;97189.00;10607944;28;20581;-64
2021/12/12 01:43:41;;;;;;;7.70;4.43;;;;;;;-3.38;100.00;97193.59;10615222;28;20169;-63
2021/12/12 01:48:56;;;;;;;10.40;5.57;;;;;;;-3.37;100.00;97205.47;10615376;28;20170;-63
2021/12/12 01:53:58;;;;;;;9.80;5.07;;;;;;;-3.38;100.00;97223.47;10615203;28;20341;-62
2021/12/12 01:59:03;;;;;;;8.13;4.73;;;;;;;-3.49;100.00;97227.28;10614485;28;20185;-62
2021/12/12 02:04:09;;;;;;;12.17;5.20;;;;;;;-3.77;100.00;97238.56;10614801;28;20223;-63
2021/12/12 02:09:10;;;;;;;10.07;5.43;;;;;;;-3.90;100.00;97228.81;10596426;28;20193;-62
2021/12/12 02:14:13;;;;;;;12.53;5.27;;;;;;;-3.93;100.00;97216.13;10596558;28;20165;-62
2021/12/12 02:19:15;;;;;;;14.63;6.43;;;;;;;-3.85;100.00;97225.16;10613625;28;20263;-63
2021/12/12 02:40:05;;;;;;;13.17;7.17;;;;;;;-3.55;100.00;97219.00;10597949;28;20169;-60
2021/12/12 02:45:08;;;;;;;13.93;7.67;;;;;;;-3.54;100.00;97216.38;10612532;28;20188;-59
2021/12/12 02:50:13;;;;;;;9.23;5.77;;;;;;;-3.49;100.00;97206.81;10612940;28;20499;-61
2021/12/12 02:55:18;;;;;;;14.00;6.67;;;;;;;-3.52;100.00;97206.91;10612361;28;20228;-61
2021/12/12 03:00:21;;;;;;;14.03;7.70;;;;;;;-3.42;100.00;97192.03;10612567;28;20214;-61
2021/12/12 03:05:22;;;;;;;13.40;7.07;;;;;;;-3.28;100.00;97194.06;10612264;28;20173;-61
2021/12/12 03:10:28;;;;;;;15.17;7.17;;;;;;;-3.31;100.00;97189.88;10611820;28;20201;-62
2021/12/12 03:15:30;;;;;;;15.67;7.70;;;;;;;-3.29;100.00;97195.81;10611687;28;20220;-64
2021/12/12 03:20:35;;;;;;;16.33;9.03;;;;;;;-3.34;100.00;97217.34;10611598;28;20207;-62
2021/12/12 03:25:38;;;;;;;14.37;7.83;;;;;;;-3.07;100.00;97231.66;10610860;28;20162;-61
2021/12/12 03:30:39;;;;;;;17.30;7.70;;;;;;;-3.28;100.00;97223.09;10610552;28;20239;-64
2021/12/12 03:35:40;;;;;;;15.73;8.30;;;;;;;-3.24;100.00;97232.31;10610996;28;20192;-63
2021/12/12 03:40:41;;;;;;;15.23;7.53;;;;;;;-3.19;100.00;97233.88;10610595;28;20201;-58
2021/12/12 03:45:43;;;;;;;15.07;7.83;;;;;;;-3.24;100.00;97237.44;10610659;28;20166;-63
2021/12/12 03:50:48;;;;;;;17.87;5.63;;;;;;;-3.08;100.00;97242.81;10610383;28;20211;-63
2021/12/12 03:55:50;;;;;;;13.87;7.83;;;;;;;-3.01;100.00;97235.72;10610390;28;20181;-63
2021/12/12 04:00:56;;;;;;;17.77;8.70;;;;;;;-2.72;100.00;97228.63;10608971;28;20219;-63
2021/12/12 04:05:59;;;;;;;17.03;7.53;;;;;;;-2.59;100.00;97237.50;10575900;28;20302;-64
2021/12/12 04:11:01;;;;;;;15.87;8.37;;;;;;;-2.35;100.00;97245.88;10561703;28;20204;-65
2021/12/12 04:16:01;;;;;;;16.50;9.17;;;;;;;-2.21;100.00;97232.47;10561662;28;20225;-62
2021/12/12 04:21:03;;;;;;;17.60;8.23;;;;;;;-2.04;100.00;97242.03;10561186;28;20506;-66
2021/12/12 04:26:25;;;;;;;20.03;9.90;;;;;;;-1.98;100.00;97240.94;10560783;28;20173;-63
2021/12/12 04:31:25;;;;;;;18.00;8.87;;;;;;;-1.92;100.00;97245.81;10560534;28;20198;-63
2021/12/12 04:36:32;;;;;;;18.43;10.03;;;;;;;-1.89;100.00;97250.81;10560177;28;20170;-63
2021/12/12 04:41:32;;;;;;;18.17;9.97;;;;;;;-1.75;100.00;97254.53;10561134;28;20171;-62
2021/12/12 04:49:55;;;;;;;14.30;8.57;;;;;;;-1.69;100.00;97252.50;10561102;28;20324;-63
2021/12/12 04:52:02;;;;;;;23.00;10.70;;;;;;;-1.89;100.00;97237.97;10545758;28;20370;-64
2021/12/12 04:57:06;;;;;;;18.83;10.30;;;;;;;-1.81;100.00;97247.91;10542522;28;20194;-63
2021/12/12 05:02:14;;;;;;;18.97;10.40;;;;;;;-1.67;100.00;97255.00;10545015;28;20252;-64
2021/12/12 05:07:19;;;;;;;18.47;10.00;;;;;;;-1.68;100.00;97263.63;10566091;28;20185;-65
2021/12/12 05:12:29;;;;;;;16.37;8.93;;;;;;;-1.63;100.00;97267.66;10555648;28;20206;-64
2021/12/12 05:17:36;;;;;;;17.67;9.03;;;;;;;-1.59;100.00;97276.06;10556390;28;20218;-62
2021/12/12 05:22:44;;;;;;;20.13;9.80;;;;;;;-1.58;100.00;97284.59;10556094;28;20346;-64
2021/12/12 05:27:47;;;;;;;22.00;11.23;;;;;;;-1.85;100.00;97278.03;10555650;28;20292;-65
2021/12/12 05:32:49;;;;;;;16.20;9.10;;;;;;;-1.77;100.00;97280.28;10555585;28;20285;-67
2021/12/12 05:37:51;;;;;;;19.33;9.90;;;;;;;-1.87;100.00;97282.41;10555924;28;20177;-65
2021/12/12 05:42:53;;;;;;;16.67;9.00;;;;;;;-1.86;100.00;97290.94;10573178;28;20182;-65
2021/12/12 05:47:53;;;;;;;17.17;9.77;;;;;;;-1.80;100.00;97301.78;10573041;28;20279;-65
2021/12/12 05:52:54;;;;;;;14.70;9.00;;;;;;;-1.72;100.00;97292.91;10572571;28;20194;-67
2021/12/12 05:57:56;;;;;;;18.77;8.57;;;;;;;-1.68;100.00;97305.56;10555403;28;20170;-64
2021/12/12 06:02:57;;;;;;;18.27;9.17;;;;;;;-1.80;100.00;97304.34;10571954;28;20210;-65
2021/12/12 06:07:57;;;;;;;20.20;10.23;;;;;;;-1.86;100.00;97312.31;10554825;28;20377;-65
2021/12/12 06:12:58;;;;;;;14.13;8.73;;;;;;;-1.69;100.00;97300.50;10554069;28;20222;-66
2021/12/12 06:17:59;;;;;;;16.20;8.53;;;;;;;-1.82;100.00;97302.75;10554041;28;20289;-66
2021/12/12 06:22:59;;;;;;;18.73;9.60;;;;;;;-1.93;100.00;97312.63;10553072;28;20167;-65
2021/12/12 06:27:59;;;;;;;12.50;8.13;;;;;;;-1.87;100.00;97302.09;10574898;28;20291;-65
2021/12/12 06:33:00;;;;;;;17.00;9.27;;;;;;;-2.03;100.00;97309.63;10610756;28;20194;-65
2021/12/12 06:38:03;;;;;;;16.87;10.00;;;;;;;-2.15;100.00;97311.78;10595279;28;20277;-65
2021/12/12 06:43:06;;;;;;;17.27;8.80;;;;;;;-2.16;100.00;97315.28;10613314;28;20369;-64
2021/12/12 06:48:09;;;;;;;14.20;7.10;;;;;;;-2.22;100.00;97320.66;10612695;28;20220;-65
2021/12/12 06:53:12;;;;;;;16.93;8.33;;;;;;;-2.17;100.00;97328.16;10612824;28;20304;-66
2021/12/12 06:58:14;;;;;;;14.00;8.30;;;;;;;-2.24;100.00;97335.25;10612780;28;20235;-65
2021/12/12 07:03:16;;;;;;;10.23;6.00;;;;;;;-2.15;100.00;97334.88;10611994;28;20170;-65
2021/12/12 07:08:18;;;;;;;14.93;8.00;;;;;;;-2.20;100.00;97338.56;10612276;28;20228;-66
2021/12/12 07:13:18;;;;;;;10.77;6.50;;;;;;;-1.96;100.00;97339.28;10594124;28;20205;-64
2021/12/12 07:18:21;;;;;;;10.00;4.60;;;;;;;-1.90;100.00;97341.59;10611296;28;20224;-63
2021/12/12 07:23:22;;;;;;;12.00;7.30;;;;;;;-1.79;100.00;97348.84;10611608;28;20173;-65
2021/12/12 07:28:22;;;;;;;14.17;6.67;;;;;;;-1.84;100.00;97349.06;10609498;28;20225;-65
2021/12/12 07:33:23;;;;;;;7.23;4.83;;;;;;;-1.60;100.00;97358.34;10608788;28;20416;-66
2021/12/12 07:38:24;;;;;;;22.27;10.93;;;;;;;-1.72;100.00;97355.38;10591045;28;20186;-66
2021/12/12 07:43:30;;;;;;;34.60;14.83;;;;;;;-1.65;100.00;97364.50;10590299;28;20185;-65
2021/12/12 07:48:31;;;;;;;15.20;7.63;;;;;;;-1.64;100.00;97370.47;10610672;28;20216;-67
2021/12/12 07:53:31;;;;;;;18.60;10.30;;;;;;;-1.54;100.00;97368.38;10610365;28;20206;-66
2021/12/12 07:58:32;;;;;;;8.40;4.37;;;;;;;-1.37;100.00;97367.63;10610034;28;20188;-65
2021/12/12 08:03:35;;;;;;;17.17;9.00;;;;;;;-1.12;100.00;97359.69;10610086;28;20267;-65
2021/12/12 08:08:35;;;;;;;28.40;12.73;;;;;;;-0.72;100.00;97360.44;10609775;28;20192;-65
2021/12/12 08:13:36;;;;;;;12.27;7.57;;;;;;;-0.57;100.00;97361.47;10609473;28;20197;-64
2021/12/12 08:18:38;;;;;;;14.23;7.90;;;;;;;-0.21;100.00;97363.22;10609158;28;20475;-65
2021/12/12 08:23:41;;;;;;;9.70;4.93;;;;;;;0.30;100.00;97382.19;10609742;28;20162;-65
2021/12/12 08:28:43;;;;;;;12.90;7.73;;;;;;;0.49;100.00;97370.94;10590542;28;20277;-65
2021/12/12 08:33:43;;;;;;;9.30;5.57;;;;;;;0.29;100.00;97367.66;10627377;27;20396;-65
2021/12/12 08:38:44;;;;;;;15.73;6.20;;;;;;;0.63;100.00;97365.94;10590250;28;20174;-66
2021/12/12 08:43:44;;;;;;;12.73;8.67;;;;;;;0.75;100.00;97363.63;10611405;28;20173;-67
2021/12/12 08:48:48;;;;;;;8.30;5.40;;;;;;;0.96;100.00;97367.69;10636358;27;20177;-65
2021/12/12 08:53:51;;;;;;;4.27;3.33;;;;;;;1.19;100.00;97363.03;10618853;27;20367;-64
2021/12/12 08:58:53;;;;;;;4.87;3.37;;;;;;;0.79;100.00;97360.00;10594223;28;20302;-65
2021/12/12 09:04:00;;;;;;;7.13;4.93;;;;;;;1.19;100.00;97352.72;10572690;28;20170;-66
2021/12/12 09:09:07;;;;;;;9.17;4.33;;;;;;;1.20;100.00;97338.91;10578192;28;20175;-64
2021/12/12 09:14:54;;;;;;;9.17;4.77;;;;;;;1.63;100.00;97341.72;10579721;28;20201;-65
2021/12/12 09:20:02;;;;;;;8.87;5.30;;;;;;;1.91;100.00;97360.84;10568722;28;20405;-64
2021/12/12 09:25:16;;;;;;;7.20;4.73;;;;;;;1.91;99.47;97346.16;10578344;28;20162;-64
2021/12/12 09:30:23;;;;;;;9.73;5.13;;;;;;;2.03;94.85;97334.31;10578218;28;20198;-61
2021/12/12 09:35:28;;;;;;;8.00;4.17;;;;;;;2.57;93.26;97328.56;10578977;28;20439;-63
2021/12/12 09:40:47;;;;;;;6.30;3.50;;;;;;;2.58;91.36;97326.84;10560429;28;20242;-62
2021/12/12 09:45:56;;;;;;;6.60;3.87;;;;;;;3.28;88.21;97313.94;10560861;28;20184;-63
2021/12/12 09:51:18;;;;;;;6.77;4.57;;;;;;;2.87;85.07;97283.69;10561137;28;20330;-63
2021/12/12 09:56:46;;;;;;;5.43;3.47;;;;;;;2.78;87.10;97300.59;10557053;28;20187;-67
2021/12/12 10:02:29;;;;;;;7.43;3.57;;;;;;;3.00;84.11;97281.16;10592431;28;20177;-66
2021/12/12 10:07:49;;;;;;;6.63;4.40;;;;;;;2.97;85.59;97291.69;10606912;28;20212;-66
2021/12/12 10:12:57;;;;;;;7.37;4.30;;;;;;;2.92;85.81;97273.03;10595382;28;20194;-66
2021/12/12 10:18:10;;;;;;;5.67;4.00;;;;;;;2.89;86.39;97266.28;10592669;28;20234;-65
2021/12/12 10:23:26;;;;;;;7.70;3.77;;;;;;;3.07;84.85;97245.38;10528487;28;20276;-67
2021/12/12 10:28:32;;;;;;;5.80;3.00;;;;;;;3.01;83.93;97244.81;10528190;28;20179;-65
2021/12/12 10:33:40;;;;;;;8.53;4.10;;;;;;;2.87;85.65;97238.88;10526128;28;20230;-61
2021/12/12 10:38:54;;;;;;;5.90;3.93;;;;;;;2.70;86.30;97235.56;10510764;28;20167;-64
2021/12/12 10:44:00;;;;;;;5.40;4.03;;;;;;;2.65;86.86;97235.84;10509536;28;20314;-64
2021/12/12 10:49:17;;;;;;;5.63;3.60;;;;;;;3.15;83.79;97212.06;10544085;28;20174;-62
2021/12/12 10:54:23;;;;;;;6.20;3.90;;;;;;;3.05;84.92;97224.78;10543002;28;20358;-61
2021/12/12 10:59:36;;;;;;;55.67;24.37;;;;;;;2.84;84.87;97234.69;10553520;28;20247;-60
2021/12/12 11:04:49;;;;;;;10.73;5.27;;;;;;;2.45;87.50;97250.00;10539802;28;20178;-64
2021/12/12 11:10:13;;;;;;;5.13;3.30;;;;;;;2.54;86.18;97251.16;10550406;28;20261;-65
2021/12/12 11:15:30;;;;;;;4.10;2.97;;;;;;;2.80;85.85;97230.63;10576635;28;20270;-60
2021/12/12 11:20:43;;;;;;;6.73;4.70;;;;;;;3.39;83.47;97220.84;10610308;28;20165;-63
2021/12/12 11:25:48;;;;;;;5.60;3.37;;;;;;;3.39;83.67;97238.16;10610629;28;20166;-60
2021/12/12 11:30:57;;;;;;;6.37;4.30;;;;;;;3.62;80.29;97207.34;10592283;28;20295;-61
2021/12/12 11:35:58;;;;;;;7.07;4.63;;;;;;;3.73;79.37;97200.50;10609461;28;20238;-63
2021/12/12 11:41:17;;;;;;;6.30;4.83;;;;;;;3.45;79.86;97211.84;10591841;28;20162;-61
2021/12/12 11:46:40;;;;;;;8.37;6.00;;;;;;;3.83;79.61;97215.44;10610122;28;20173;-60
2021/12/12 11:51:44;;;;;;;6.83;3.60;;;;;;;3.34;79.52;97225.50;10608976;28;20220;-60
2021/12/12 11:56:55;;;;;;;5.30;3.10;;;;;;;3.22;79.91;97240.03;10591717;28;20178;-61
2021/12/12 12:02:13;;;;;;;4.63;3.07;;;;;;;3.00;80.28;97237.16;10591146;28;20158;-61
2021/12/12 12:07:20;;;;;;;5.63;3.30;;;;;;;3.16;80.39;97239.63;10590954;28;20217;-61
2021/12/12 12:12:58;;;;;;;4.67;2.57;;;;;;;3.15;81.08;97235.34;10591051;28;20197;-61
2021/12/12 12:18:05;;;;;;;2.20;1.60;;;;;;;2.99;80.22;97222.56;10608214;28;20241;-61
2021/12/12 12:23:17;;;;;;;4.70;2.87;;;;;;;3.49;80.34;97215.06;10607983;28;20185;-59
2021/12/12 12:28:23;;;;;;;3.67;3.23;;;;;;;3.02;79.06;97199.06;10591346;28;20194;-61
2021/12/12 12:33:23;;;;;;;4.23;2.60;;;;;;;3.64;78.32;97185.56;10607080;28;20323;-59
2021/12/12 12:39:01;;;;;;;6.65;2.90;;;;;;;3.54;78.11;97193.13;10608650;28;20189;-63
2021/12/12 12:44:27;;;;;;;7.23;2.90;;;;;;;3.33;77.73;97187.56;10607686;28;20167;-61
2021/12/12 12:50:07;;;;;;;3.93;2.57;;;;;;;3.44;78.01;97199.81;10607603;28;20166;-65
2021/12/12 12:56:05;;;;;;;4.77;2.77;;;;;;;3.07;80.71;97224.66;10575120;28;20297;-64
2021/12/12 13:01:14;;;;;;;4.10;3.03;;;;;;;3.41;80.09;97205.19;10431495;28;20164;-64
2021/12/12 13:06:14;;;;;;;3.80;2.73;;;;;;;3.39;81.37;97202.72;10525181;28;20258;-66
2021/12/12 13:11:26;;;;;;;4.23;2.70;;;;;;;3.42;80.29;97193.09;10559562;28;20190;-63
2021/12/12 13:16:44;;;;;;;5.57;2.63;;;;;;;3.41;80.26;97178.47;10541692;28;20231;-64
2021/12/12 13:22:02;;;;;;;6.00;2.80;;;;;;;3.06;81.53;97200.53;10541823;28;20163;-65
2021/12/12 13:27:27;;;;;;;4.97;2.67;;;;;;;3.03;82.38;97208.47;10541940;28;20170;-63
2021/12/12 13:32:42;;;;;;;5.43;2.73;;;;;;;3.06;83.10;97200.53;10548406;28;20198;-64
2021/12/12 13:37:54;;;;;;;7.43;3.20;;;;;;;3.10;82.70;97216.72;10566783;28;20186;-65
2021/12/12 13:43:18;;;;;;;9.67;2.30;;;;;;;3.18;82.70;97198.91;10548535;28;20175;-63
2021/12/12 13:48:48;;;;;;;3.43;2.50;;;;;;;3.03;84.04;97195.53;10565428;28;20333;-64
2021/12/12 13:53:55;;;;;;;3.33;2.30;;;;;;;3.04;84.51;97192.03;10544791;28;20221;-65
2021/12/12 13:59:09;;;;;;;4.83;2.40;;;;;;;3.14;85.34;97200.03;10547724;28;20181;-64
2021/12/12 14:04:20;;;;;;;6.80;2.63;;;;;;;3.15;85.10;97192.16;10548176;28;20178;-66
2021/12/12 14:09:23;;;;;;;3.87;2.83;;;;;;;2.90;87.16;97199.84;10547196;28;20171;-67
2021/12/12 14:14:31;;;;;;;5.67;2.53;;;;;;;2.79;87.40;97203.94;10547041;28;20202;-69
2021/12/12 14:19:38;;;;;;;3.30;2.00;;;;;;;3.01;87.70;97208.59;10546709;28;20198;-65
2021/12/12 14:24:39;;;;;;;5.10;2.17;;;;;;;2.99;88.25;97217.38;10564991;28;20167;-63
2021/12/12 14:29:43;;;;;;;3.60;2.43;;;;;;;2.84;89.86;97214.00;10546746;28;20209;-59
2021/12/12 14:34:50;;;;;;;12.87;7.30;;;;;;;2.54;93.12;97212.38;10564494;28;20201;-67
2021/12/12 14:39:52;;;;;;;5.60;3.53;;;;;;;2.53;94.92;97204.72;10546909;28;20171;-66
2021/12/12 14:44:56;;;;;;;8.17;3.07;;;;;;;2.44;97.27;97188.03;10543525;28;20167;-67
2021/12/12 14:50:08;;;;;;;4.23;2.10;;;;;;;2.64;96.68;97176.44;10563442;28;20291;-65
2021/12/12 14:55:22;;;;;;;8.63;4.27;;;;;;;2.61;96.38;97161.13;10605015;28;20182;-64
2021/12/12 15:00:26;;;;;;;5.23;2.80;;;;;;;2.50;99.13;97160.03;10604872;28;20174;-65
2021/12/12 15:05:32;;;;;;;5.47;3.23;;;;;;;2.46;100.00;97181.81;10604384;28;20170;-65
2021/12/12 15:10:53;;;;;;;23.17;9.07;;;;;;;2.48;100.00;97189.47;10602326;28;20312;-66
2021/12/12 15:16:00;;;;;;;3.70;2.10;;;;;;;2.48;100.00;97198.09;10599434;28;20341;-65
2021/12/12 15:21:07;;;;;;;5.67;2.73;;;;;;;2.52;100.00;97197.91;10596909;28;20225;-65
2021/12/12 15:26:17;;;;;;;69.37;23.27;;;;;;;2.57;100.00;97198.44;10585465;28;20166;-66
2021/12/12 15:31:31;;;;;;;11.27;6.77;;;;;;;2.76;100.00;97182.63;10603916;28;20194;-65
2021/12/12 15:36:38;;;;;;;8.80;4.37;;;;;;;2.87;100.00;97181.94;10603167;28;20327;-65
2021/12/12 15:41:41;;;;;;;8.63;1.93;;;;;;;3.06;100.00;97174.63;10586883;28;20170;-65
2021/12/12 15:46:44;;;;;;;5.93;3.20;;;;;;;3.00;100.00;97186.25;10604079;28;20173;-64
2021/12/12 15:51:46;;;;;;;4.37;2.57;;;;;;;3.06;100.00;97186.75;10603705;28;20204;-66
2021/12/12 15:57:03;;;;;;;4.90;1.93;;;;;;;2.93;100.00;97190.13;10585377;28;20176;-65
2021/12/12 16:02:09;;;;;;;5.03;1.80;;;;;;;2.93;100.00;97199.66;10603257;28;20219;-64
2021/12/12 16:07:16;;;;;;;6.43;1.70;;;;;;;2.88;100.00;97204.28;10605346;28;20213;-66
2021/12/12 16:12:20;;;;;;;2.93;1.90;;;;;;;2.73;100.00;97195.75;10585899;28;20246;-68
2021/12/12 16:17:28;;;;;;;11.07;2.40;;;;;;;2.62;100.00;97183.44;10605665;28;20229;-65
2021/12/12 16:22:34;;;;;;;6.37;2.63;;;;;;;2.45;100.00;97180.16;10604724;28;20162;-61
2021/12/12 16:27:40;;;;;;;4.13;2.07;;;;;;;2.40;100.00;97174.44;10586946;28;20257;-64
2021/12/12 16:32:44;;;;;;;5.23;2.40;;;;;;;2.28;100.00;97177.78;10608166;28;20202;-65
2021/12/12 16:37:49;;;;;;;6.63;2.70;;;;;;;2.22;100.00;97154.88;10591238;28;20180;-67
2021/12/12 16:42:55;;;;;;;7.77;3.00;;;;;;;2.22;100.00;97160.06;10608946;28;20173;-68
2021/12/12 16:47:57;;;;;;;4.53;2.50;;;;;;;2.42;100.00;97171.75;10590711;28;20181;-65
2021/12/12 16:52:58;;;;;;;4.03;2.00;;;;;;;2.41;100.00;97178.69;10591269;28;20327;-68
2021/12/12 16:58:22;;;;;;;4.47;2.60;;;;;;;2.45;100.00;97184.50;10590221;28;20324;-64
2021/12/12 17:03:25;;;;;;;5.70;3.20;;;;;;;2.61;100.00;97179.22;10608826;28;20173;-65
2021/12/12 17:13:49;;;;;;;6.07;2.63;;;;;;;2.70;100.00;97177.81;10616469;28;20226;-66
2021/12/12 17:18:50;;;;;;;8.00;2.77;;;;;;;2.71;100.00;97166.53;10613543;28;20217;-66
2021/12/12 17:23:59;;;;;;;6.37;2.83;;;;;;;2.67;100.00;97174.47;10598729;28;20192;-65
2021/12/12 17:29:01;;;;;;;3.07;1.93;;;;;;;2.75;100.00;97168.81;10616106;28;20197;-67
2021/12/12 17:34:21;;;;;;;7.77;3.50;;;;;;;2.65;100.00;97160.00;10616083;28;20202;-64
2021/12/12 17:39:29;;;;;;;4.93;2.60;;;;;;;2.51;100.00;97168.59;10615517;28;20166;-65
2021/12/12 17:44:55;;;;;;;4.87;3.27;;;;;;;2.45;100.00;97175.00;10616079;28;20176;-66
2021/12/12 17:50:17;;;;;;;8.17;2.83;;;;;;;2.48;100.00;97174.81;10615016;28;20235;-67
2021/12/12 17:55:22;;;;;;;3.67;2.50;;;;;;;2.44;100.00;97170.75;10612399;28;20534;-69
2021/12/12 18:00:41;;;;;;;2.67;2.20;;;;;;;2.45;100.00;97163.81;10612597;28;20233;-66
2021/12/12 18:05:54;;;;;;;2.97;2.00;;;;;;;2.43;100.00;97160.50;10614095;28;20181;-65
2021/12/12 18:10:57;;;;;;;4.57;2.80;;;;;;;2.40;100.00;97171.03;10612858;28;20198;-68
2021/12/12 18:16:14;;;;;;;4.40;2.70;;;;;;;2.49;100.00;97176.44;10610020;28;20206;-65
2021/12/12 18:21:19;;;;;;;2.30;2.10;;;;;;;2.61;100.00;97171.47;10608088;28;20169;-66
2021/12/12 18:26:23;;;;;;;4.00;2.60;;;;;;;2.57;100.00;97175.16;10593365;28;20255;-67
2021/12/12 18:31:28;;;;;;;1.80;1.50;;;;;;;2.56;100.00;97170.91;10613150;28;20780;-67
2021/12/12 18:36:55;;;;;;;3.17;2.50;;;;;;;2.54;100.00;97170.16;10612200;28;20405;-66
2021/12/12 18:42:03;;;;;;;3.13;2.10;;;;;;;2.60;100.00;97172.38;10594775;28;20283;-66
2021/12/12 18:47:06;;;;;;;1.90;1.47;;;;;;;2.67;100.00;97184.00;10570811;28;20340;-66
2021/12/12 18:52:16;;;;;;;2.60;2.30;;;;;;;2.63;100.00;97185.13;10592088;28;20206;-66
2021/12/12 18:57:20;;;;;;;2.80;2.60;;;;;;;2.53;100.00;97190.03;10592153;28;20174;-66
2021/12/12 19:02:30;;;;;;;3.97;2.07;;;;;;;2.58;100.00;97185.41;10608258;28;20166;-67
2021/12/12 19:07:31;;;;;;;2.60;2.23;;;;;;;2.58;100.00;97182.00;10592859;28;20373;-64
2021/12/12 19:12:34;;;;;;;3.07;2.33;;;;;;;2.53;100.00;97181.44;10611228;28;20200;-67
2021/12/12 19:17:35;;;;;;;1.87;1.77;;;;;;;2.60;100.00;97188.72;10604001;28;20387;-65
2021/12/12 19:22:37;;;;;;;2.83;2.20;;;;;;;2.52;100.00;97184.97;10561256;28;20215;-65
2021/12/12 19:27:41;;;;;;;2.13;1.93;;;;;;;2.56;100.00;97186.41;10563769;28;20262;-66
2021/12/12 19:32:41;;;;;;;2.20;2.00;;;;;;;2.54;100.00;97183.09;10562300;28;20201;-66
2021/12/12 19:37:46;;;;;;;1.60;1.50;;;;;;;2.54;100.00;97190.88;10561170;28;20166;-66
2021/12/12 19:42:50;;;;;;;1.60;1.50;;;;;;;2.58;100.00;97185.41;10562340;28;20285;-66
2021/12/12 19:47:51;;;;;;;2.30;1.70;;;;;;;2.52;100.00;97190.97;10561358;28;20178;-66
2021/12/12 19:52:52;;;;;;;2.03;1.67;;;;;;;2.52;100.00;97196.13;10560915;28;20186;-66
2021/12/12 19:57:58;;;;;;;1.80;1.70;;;;;;;2.58;100.00;97194.94;10561105;28;20174;-66
2021/12/12 20:03:20;;;;;;;1.30;1.20;;;;;;;2.61;100.00;97195.56;10559446;28;20159;-66
2021/12/12 20:08:37;;;;;;;2.10;1.93;;;;;;;2.57;100.00;97206.19;10560557;28;20297;-65
2021/12/12 20:13:46;;;;;;;6.00;3.37;;;;;;;2.57;100.00;97209.59;10599416;28;20376;-64
2021/12/12 20:18:46;;;;;;;3.57;2.13;;;;;;;2.60;100.00;97208.59;10597379;28;20225;-66
2021/12/12 20:23:47;;;;;;;5.13;2.57;;;;;;;2.58;100.00;97215.63;10599192;28;20393;-66
2021/12/12 20:28:53;;;;;;;4.80;2.50;;;;;;;2.57;100.00;97207.00;10598780;28;20186;-64
2021/12/12 20:33:56;;;;;;;3.47;1.93;;;;;;;2.50;100.00;97206.56;10598862;28;20206;-65
2021/12/12 20:39:24;;;;;;;1.23;1.20;;;;;;;2.57;100.00;97206.19;10583331;28;20162;-65
2021/12/12 20:44:47;;;;;;;1.67;1.57;;;;;;;2.60;100.00;97203.41;10601564;28;20170;-64
2021/12/12 20:49:52;;;;;;;1.40;1.30;;;;;;;2.55;100.00;97208.06;10600498;28;20186;-64
2021/12/12 20:55:02;;;;;;;1.33;1.30;;;;;;;2.56;100.00;97207.09;10601122;28;20385;-64
2021/12/12 21:00:26;;;;;;;1.40;1.30;;;;;;;2.54;100.00;97206.38;10583597;28;20178;-65
2021/12/12 21:05:41;;;;;;;1.20;1.20;;;;;;;2.57;100.00;97196.66;10600052;28;20280;-64
2021/12/12 21:10:46;;;;;;;1.60;1.40;;;;;;;2.58;100.00;97195.75;10600315;28;20201;-64
2021/12/12 21:15:50;;;;;;;2.30;1.43;;;;;;;2.62;100.00;97202.41;10600760;28;20293;-64
2021/12/12 21:20:53;;;;;;;1.70;1.60;;;;;;;2.62;100.00;97204.13;10600946;28;20183;-63
2021/12/12 21:26:00;;;;;;;1.27;1.17;;;;;;;2.64;100.00;97204.91;10600415;28;20644;-65
2021/12/12 21:31:14;;;;;;;1.33;1.23;;;;;;;2.62;100.00;97209.31;10599605;28;20198;-66
2021/12/12 21:36:32;;;;;;;1.43;1.30;;;;;;;2.69;100.00;97223.53;10601604;28;20162;-66
2021/12/12 21:41:45;;;;;;;1.20;1.10;;;;;;;2.61;100.00;97224.00;10601196;28;20166;-65
2021/12/12 21:46:47;;;;;;;1.10;1.10;;;;;;;2.65;100.00;97227.25;10601490;28;20392;-61
2021/12/12 21:51:47;;;;;;;1.30;1.20;;;;;;;2.70;100.00;97237.31;10604235;28;20201;-65
2021/12/12 21:56:51;;;;;;;1.20;1.20;;;;;;;2.68;100.00;97235.66;10608615;28;20158;-62
2021/12/12 22:01:51;;;;;;;1.53;1.43;;;;;;;2.67;100.00;97227.97;10608344;28;20166;-66
2021/12/12 22:06:54;;;;;;;1.97;1.77;;;;;;;2.63;100.00;97237.69;10592190;28;20176;-64
2021/12/12 22:11:59;;;;;;;1.80;1.70;;;;;;;2.63;100.00;97232.53;10607884;28;20209;-64
2021/12/12 22:17:06;;;;;;;2.17;2.03;;;;;;;2.62;100.00;97237.75;10607443;28;20288;-65
2021/12/12 22:22:10;;;;;;;2.47;2.27;;;;;;;2.61;100.00;97231.78;10607796;28;20177;-63
2021/12/12 22:27:14;;;;;;;1.70;1.60;;;;;;;2.67;100.00;97230.56;10606856;28;20245;-63
2021/12/12 22:32:16;;;;;;;2.40;2.20;;;;;;;2.57;100.00;97219.94;10607549;28;20209;-63
2021/12/12 22:37:19;;;;;;;2.07;1.93;;;;;;;2.66;100.00;97223.72;10606864;28;20178;-63
2021/12/12 22:42:26;;;;;;;2.90;2.70;;;;;;;2.60;100.00;97218.94;10607129;28;20170;-64
2021/12/12 22:47:29;;;;;;;2.60;2.40;;;;;;;2.59;100.00;97225.03;10607023;28;20170;-62
2021/12/12 22:52:38;;;;;;;1.90;1.80;;;;;;;2.68;100.00;97230.47;10606513;28;20311;-63
2021/12/12 22:57:47;;;;;;;2.30;2.20;;;;;;;2.63;100.00;97229.94;10606982;28;20392;-66
2021/12/12 23:02:49;;;;;;;1.83;1.73;;;;;;;2.68;100.00;97224.47;10587413;28;20373;-61
2021/12/12 23:07:56;;;;;;;3.17;2.80;;;;;;;2.69;100.00;97233.88;10588211;28;20381;-65
2021/12/12 23:13:07;;;;;;;3.43;3.13;;;;;;;2.62;100.00;97232.59;10604666;28;20321;-63
2021/12/12 23:18:25;;;;;;;3.40;3.10;;;;;;;2.60;100.00;97235.28;10587405;28;20241;-64
2021/12/12 23:23:31;;;;;;;2.70;2.50;;;;;;;2.64;100.00;97235.94;10588562;28;20177;-63
2021/12/12 23:33:58;;;;;;;3.23;3.03;;;;;;;2.61;100.00;97231.78;10611629;28;20201;-63
2021/12/12 23:39:13;;;;;;;3.43;2.97;;;;;;;2.62;100.00;97222.25;10610933;28;20169;-64
2021/12/12 23:49:29;;;;;;;3.47;3.17;;;;;;;2.64;100.00;97225.59;10592809;28;20181;-62
2021/12/12 23:54:33;;;;;;;2.37;2.20;;;;;;;2.65;100.00;97222.91;10610673;28;20376;-63
2021/12/12 23:59:49;;;;;;;1.80;1.70;;;;;;;2.74;100.00;97236.19;10610378;28;20169;-61
